Portada
METAR-TAF:

METAR-TAF

Aeroports :

Ipiales, Colòmbia

latitud: 00-49N, longitud: 077-38W, altitud: 2961 m

Observació

L'informe es va fer fa 40 minuts, a les 19:00 UTC
Vent 10 kt del Est/Sud-Est
Temperatura 14°C
Humitat 67%
Pressió 1028 hPa
Visibilitat 10 km o més
Cel ennuvolat a una alçada de 1600 ft
xàfecs en les proximitats

METAR: SKIP 301900Z 12010KT 9999 VCSH BKN016 14/08 A3037 RMK VCSH/E

Hora: 14:40 (19:40 UTC)


TAF: manca

Observacions i pronòstics meteorològics de més de 4000 aeroports (METAR i TAF).

Les estacions disponibles són els punts grocs i vermells al mapa.

Posi el ratolí al punt desitjat per veure el nom de l'estació.

Feu clic per veure les observacions i els pronòstics meteorològics.

Per canviar el mapa: feu clic els botons verds amb una creu de color negre per apropar; al botó verd amb un guió per allunyar la imatge; o en les fletxes verdes per a mapes adjacents.


METAR-TAF: